Time;durP1;ratioP1;P1;durP2;ratioP2;P2;SDS_P1;SDS_P2;PMS_P1;PMS_P2;Temp;Humidity;BMP_temperature;BMP_pressure;BME280_temperature;BME280_humidity;BME280_pressure;Samples;Min_cycle;Max_cycle;Signal;HPM_P1;HPM_P2
2021/04/23 00:02:17;;;;;;;32.15;5.62;;;12.10;49.20;;;;;;4360894;32;20066;-31
2021/04/23 00:04:44;;;;;;;24.25;4.90;;;12.00;49.60;;;;;;4373273;32;20129;-31
2021/04/23 00:07:10;;;;;;;30.80;5.07;;;12.00;49.40;;;;;;4374030;32;20530;-31
2021/04/23 00:09:37;;;;;;;26.67;4.70;;;12.00;49.40;;;;;;4374609;32;20062;-33
2021/04/23 00:12:13;;;;;;;29.77;6.40;;;12.00;49.50;;;;;;4374679;32;20139;-31
2021/04/23 00:14:46;;;;;;;38.67;7.35;;;11.90;49.90;;;;;;4372916;32;20105;-35
2021/04/23 00:17:12;;;;;;;22.13;5.22;;;11.90;50.00;;;;;;4374522;32;20073;-34
2021/04/23 00:19:39;;;;;;;23.23;6.07;;;11.90;49.90;;;;;;4374172;32;20182;-35
2021/04/23 00:22:06;;;;;;;26.55;4.70;;;11.80;50.20;;;;;;4374377;32;20054;-35
2021/04/23 00:24:33;;;;;;;26.08;5.25;;;11.80;50.20;;;;;;4374393;32;20067;-34
2021/04/23 00:27:00;;;;;;;29.75;6.03;;;11.80;50.30;;;;;;4372750;32;20071;-31
2021/04/23 00:29:26;;;;;;;33.42;7.03;;;11.70;50.70;;;;;;4341973;33;20074;-32
2021/04/23 00:31:54;;;;;;;37.55;6.60;;;11.70;50.90;;;;;;4329531;33;20070;-33
2021/04/23 00:34:20;;;;;;;35.35;6.90;;;11.60;50.90;;;;;;4340613;33;20071;-35
2021/04/23 00:36:46;;;;;;;32.13;7.07;;;11.60;51.30;;;;;;4341654;33;20105;-31
2021/04/23 00:39:13;;;;;;;31.70;7.35;;;11.50;51.20;;;;;;4342022;33;20210;-34
2021/04/23 00:41:39;;;;;;;22.60;5.35;;;11.50;51.10;;;;;;4341740;33;20201;-35
2021/04/23 00:44:07;;;;;;;26.42;6.37;;;11.50;51.00;;;;;;4341824;33;20066;-36
2021/04/23 00:46:34;;;;;;;31.10;5.78;;;11.50;50.90;;;;;;4341198;33;20510;-35
2021/04/23 00:49:01;;;;;;;31.17;5.78;;;11.50;50.90;;;;;;4341880;33;20097;-31
2021/04/23 00:51:44;;;;;;;23.70;5.50;;;11.50;50.90;;;;;;4341813;33;20066;-33
2021/04/23 00:54:11;;;;;;;23.62;4.97;;;11.60;51.00;;;;;;4318469;33;20500;-33
2021/04/23 00:56:39;;;;;;;32.33;6.12;;;11.60;50.80;;;;;;4341907;33;20063;-33
2021/04/23 00:59:08;;;;;;;30.25;6.62;;;11.50;50.90;;;;;;4341677;33;20139;-33
2021/04/23 01:01:38;;;;;;;28.58;5.70;;;11.60;50.90;;;;;;4341371;33;20059;-31
2021/04/23 01:04:15;;;;;;;31.25;8.88;;;11.60;50.90;;;;;;4341446;33;20055;-36
2021/04/23 01:06:41;;;;;;;22.25;6.07;;;11.60;50.90;;;;;;4354734;32;20147;-30
2021/04/23 01:09:12;;;;;;;22.60;5.57;;;11.60;50.80;;;;;;4359829;32;20062;-31
2021/04/23 01:11:39;;;;;;;28.40;6.78;;;11.60;50.90;;;;;;4373846;32;20522;-30
2021/04/23 01:14:05;;;;;;;18.08;5.55;;;11.60;50.90;;;;;;4340848;33;20067;-30
2021/04/23 01:16:32;;;;;;;25.20;7.55;;;11.60;51.00;;;;;;4328774;33;20120;-31
2021/04/23 01:18:58;;;;;;;25.98;6.22;;;11.60;51.00;;;;;;4329294;33;20573;-30
2021/04/23 01:21:28;;;;;;;31.80;7.45;;;11.70;51.00;;;;;;4328840;33;20086;-32
2021/04/23 01:23:56;;;;;;;31.95;7.32;;;11.70;51.20;;;;;;4350418;32;20618;-31
2021/04/23 01:26:28;;;;;;;18.55;6.45;;;11.70;51.10;;;;;;4343966;32;20078;-31
2021/04/23 01:28:55;;;;;;;34.13;5.65;;;11.70;51.20;;;;;;4356062;32;20082;-35
2021/04/23 01:31:25;;;;;;;30.15;6.90;;;11.80;51.10;;;;;;4356010;32;20135;-31
2021/04/23 01:33:59;;;;;;;40.65;7.18;;;11.90;51.10;;;;;;4356083;32;20511;-30
2021/04/23 01:36:25;;;;;;;41.47;7.10;;;11.90;51.00;;;;;;4355417;32;20599;-30
2021/04/23 01:38:52;;;;;;;35.08;7.25;;;12.00;50.90;;;;;;4355962;32;20069;-31
2021/04/23 01:41:20;;;;;;;35.65;8.98;;;12.00;50.90;;;;;;4355693;32;20540;-32
2021/04/23 01:43:47;;;;;;;33.88;8.60;;;12.00;51.10;;;;;;4343561;32;20463;-35
2021/04/23 01:46:13;;;;;;;33.97;8.93;;;12.10;51.10;;;;;;4386584;32;20485;-33
2021/04/23 01:48:40;;;;;;;33.35;6.82;;;12.10;51.10;;;;;;4387860;32;20058;-31
2021/04/23 01:51:09;;;;;;;26.70;6.50;;;12.10;51.00;;;;;;4388399;32;20090;-31
2021/04/23 01:53:35;;;;;;;37.70;14.75;;;12.20;50.90;;;;;;4388348;32;20084;-31
2021/04/23 01:56:02;;;;;;;40.63;8.00;;;12.20;50.90;;;;;;4387909;32;20097;-34
2021/04/23 01:58:29;;;;;;;35.03;6.55;;;12.30;50.80;;;;;;4388000;32;20561;-31
2021/04/23 02:00:56;;;;;;;22.15;6.40;;;12.30;50.60;;;;;;4387945;32;20084;-32
2021/04/23 02:03:22;;;;;;;27.83;8.48;;;12.30;50.60;;;;;;4387888;32;20561;-30
2021/04/23 02:05:50;;;;;;;39.90;10.45;;;12.30;50.70;;;;;;4387836;32;20061;-30
2021/04/23 02:08:18;;;;;;;34.22;7.70;;;12.30;50.60;;;;;;4387752;32;20085;-35
2021/04/23 02:10:53;;;;;;;36.60;8.57;;;12.40;50.60;;;;;;4387765;32;20054;-30
2021/04/23 02:13:22;;;;;;;34.97;7.55;;;12.40;50.70;;;;;;4374518;32;20221;-30
2021/04/23 02:15:49;;;;;;;37.97;9.02;;;12.50;50.40;;;;;;4388048;32;20165;-32
2021/04/23 02:18:15;;;;;;;30.50;6.68;;;12.50;50.30;;;;;;4386223;32;20068;-30
2021/04/23 02:20:42;;;;;;;24.65;5.95;;;12.60;50.30;;;;;;4373763;32;20617;-31
2021/04/23 02:23:10;;;;;;;37.97;6.28;;;12.60;50.20;;;;;;4382815;32;20082;-30
2021/04/23 02:25:37;;;;;;;34.53;7.87;;;12.70;50.20;;;;;;4373026;32;20554;-31
2021/04/23 02:28:08;;;;;;;41.13;7.72;;;12.70;50.20;;;;;;4371116;32;20143;-30
2021/04/23 02:30:44;;;;;;;40.03;7.07;;;12.70;50.10;;;;;;4372618;32;20098;-30
2021/04/23 02:33:14;;;;;;;42.22;9.18;;;12.70;50.30;;;;;;4371204;32;20069;-30
2021/04/23 02:35:41;;;;;;;34.45;7.93;;;12.70;50.30;;;;;;4372540;32;20113;-30
2021/04/23 02:38:08;;;;;;;30.27;7.35;;;12.80;50.20;;;;;;4370850;32;20073;-31
2021/04/23 02:40:35;;;;;;;44.10;9.85;;;12.70;50.20;;;;;;4372440;32;20127;-33
2021/04/23 02:43:07;;;;;;;41.50;9.15;;;12.70;50.20;;;;;;4372746;32;20070;-30
2021/04/23 02:45:35;;;;;;;40.08;9.43;;;12.80;50.30;;;;;;4371186;32;20074;-31
2021/04/23 02:48:03;;;;;;;41.88;7.90;;;12.80;50.20;;;;;;4371039;32;20176;-30
2021/04/23 02:50:30;;;;;;;29.17;7.28;;;12.80;50.10;;;;;;4372480;32;20063;-30
2021/04/23 02:52:57;;;;;;;45.38;7.68;;;12.90;50.80;;;;;;4370811;32;20081;-30
2021/04/23 02:55:24;;;;;;;30.48;8.50;;;12.90;49.90;;;;;;4372560;32;20085;-30
2021/04/23 02:58:15;;;;;;;35.88;8.70;;;13.00;50.00;;;;;;4373706;32;20038;-29
2021/04/23 03:00:52;;;;;;;33.58;7.65;;;13.10;50.10;;;;;;4375789;32;20147;-30
2021/04/23 03:03:19;;;;;;;40.97;8.32;;;13.20;49.80;;;;;;4375398;32;20618;-32
2021/04/23 03:05:46;;;;;;;34.88;7.22;;;13.30;49.60;;;;;;4374064;32;20471;-31
2021/04/23 03:08:13;;;;;;;39.63;7.40;;;13.40;49.50;;;;;;4374979;32;20120;-30
2021/04/23 03:10:47;;;;;;;37.55;6.55;;;13.60;49.30;;;;;;4373895;32;20082;-31
2021/04/23 03:13:19;;;;;;;38.70;8.70;;;13.70;48.90;;;;;;4375538;32;20085;-30
2021/04/23 03:15:46;;;;;;;37.58;7.00;;;13.90;48.80;;;;;;4373592;32;20068;-30
2021/04/23 03:18:18;;;;;;;36.35;10.88;;;14.10;48.70;;;;;;4373832;32;20138;-30
2021/04/23 03:20:44;;;;;;;42.72;7.80;;;14.20;48.10;;;;;;4374989;32;20466;-31
2021/04/23 03:23:11;;;;;;;27.95;6.22;;;14.40;47.50;;;;;;4375925;32;20062;-34
2021/04/23 03:25:38;;;;;;;56.50;10.27;;;14.50;47.50;;;;;;4375186;32;20066;-31
2021/04/23 03:28:04;;;;;;;51.55;7.43;;;14.70;47.00;;;;;;4361082;32;20143;-31
2021/04/23 03:30:38;;;;;;;49.33;9.00;;;14.80;46.80;;;;;;4357459;32;20067;-34
2021/04/23 03:33:05;;;;;;;40.08;7.72;;;15.00;46.00;;;;;;4346014;32;20059;-35
2021/04/23 03:35:32;;;;;;;38.70;8.23;;;15.20;45.90;;;;;;4344959;32;20070;-32
2021/04/23 03:38:00;;;;;;;31.35;7.40;;;15.40;45.50;;;;;;4357598;32;20658;-31
2021/04/23 03:40:28;;;;;;;55.78;9.38;;;15.50;44.90;;;;;;4357736;32;20070;-31
2021/04/23 03:42:55;;;;;;;54.42;10.32;;;15.80;44.70;;;;;;4357378;32;20146;-31
2021/04/23 03:45:23;;;;;;;33.22;7.05;;;16.00;44.50;;;;;;4344863;32;20098;-32
2021/04/23 03:47:50;;;;;;;37.35;6.47;;;16.30;43.60;;;;;;4357314;32;20092;-32
2021/04/23 03:50:19;;;;;;;39.45;7.95;;;16.50;42.90;;;;;;4357465;32;20142;-31
2021/04/23 03:52:47;;;;;;;42.40;7.43;;;16.80;42.80;;;;;;4357100;32;20070;-32
2021/04/23 03:55:22;;;;;;;48.28;9.68;;;17.20;42.30;;;;;;4357578;32;20062;-30
2021/04/23 03:57:48;;;;;;;49.90;7.10;;;17.60;41.70;;;;;;4344912;32;20066;-31
2021/04/23 04:00:18;;;;;;;53.78;8.57;;;17.90;41.40;;;;;;4345090;32;20084;-31
2021/04/23 04:02:45;;;;;;;42.60;8.27;;;18.30;40.80;;;;;;4357279;32;20200;-31
2021/04/23 04:05:13;;;;;;;38.42;6.87;;;18.60;39.60;;;;;;4357376;32;20078;-31
2021/04/23 04:07:39;;;;;;;40.55;7.25;;;18.90;39.30;;;;;;4363945;32;20066;-34
2021/04/23 04:10:08;;;;;;;38.35;7.18;;;19.00;38.50;;;;;;4374077;32;20177;-32
2021/04/23 04:12:34;;;;;;;40.33;7.28;;;19.10;37.80;;;;;;4374421;32;20070;-33
2021/04/23 04:15:01;;;;;;;30.60;7.25;;;19.30;37.30;;;;;;4374360;32;20082;-32
2021/04/23 04:17:27;;;;;;;50.50;9.65;;;19.40;37.40;;;;;;4374468;32;20178;-33
2021/04/23 04:19:53;;;;;;;34.30;5.03;;;19.60;37.20;;;;;;4374534;32;20074;-33
2021/04/23 04:22:20;;;;;;;46.20;7.28;;;19.70;36.90;;;;;;4374527;32;20069;-37
2021/04/23 04:24:46;;;;;;;48.58;7.53;;;20.00;37.30;;;;;;4372546;32;20081;-34
2021/04/23 04:27:15;;;;;;;44.13;9.32;;;20.30;36.30;;;;;;4374236;32;20104;-34
2021/04/23 04:29:42;;;;;;;39.92;7.80;;;20.40;36.00;;;;;;4374170;32;20170;-34
2021/04/23 04:32:09;;;;;;;43.72;9.57;;;20.60;35.30;;;;;;4374596;32;20139;-34
2021/04/23 04:34:35;;;;;;;42.97;6.25;;;20.80;34.80;;;;;;4374023;32;20196;-35
2021/04/23 04:37:02;;;;;;;36.20;4.30;;;20.90;34.20;;;;;;4372431;32;20138;-32
2021/04/23 04:39:29;;;;;;;32.67;6.87;;;21.00;33.80;;;;;;4374106;32;20062;-32
2021/04/23 04:41:55;;;;;;;44.13;8.32;;;21.00;33.70;;;;;;4374332;32;20528;-32
2021/04/23 04:44:22;;;;;;;38.03;6.90;;;20.90;33.70;;;;;;4374104;32;20117;-33
2021/04/23 04:46:48;;;;;;;48.15;7.62;;;20.80;33.80;;;;;;4374306;32;20440;-32
2021/04/23 04:49:14;;;;;;;48.40;7.70;;;20.70;34.30;;;;;;4373990;32;20638;-34
2021/04/23 04:51:41;;;;;;;47.60;7.78;;;20.70;34.20;;;;;;4373814;32;20100;-33
2021/04/23 04:54:07;;;;;;;47.00;6.75;;;20.70;34.40;;;;;;4374142;32;20089;-34
2021/04/23 04:56:34;;;;;;;54.05;7.72;;;20.90;34.30;;;;;;4374255;32;20074;-36
2021/04/23 04:59:00;;;;;;;57.70;7.12;;;21.00;33.90;;;;;;4373900;32;20084;-36
2021/04/23 05:01:27;;;;;;;58.22;8.75;;;21.10;33.60;;;;;;4373826;32;20069;-42
2021/04/23 05:03:53;;;;;;;46.25;8.27;;;21.30;34.10;;;;;;4373981;32;20054;-36
2021/04/23 05:06:20;;;;;;;59.15;9.82;;;21.40;33.70;;;;;;4373849;32;20154;-37
2021/04/23 05:08:47;;;;;;;45.72;9.00;;;21.60;33.50;;;;;;4373493;32;20065;-35
2021/04/23 05:11:13;;;;;;;36.78;7.50;;;21.80;33.30;;;;;;4372168;32;20081;-36
2021/04/23 05:13:39;;;;;;;42.05;7.40;;;21.90;32.50;;;;;;4372506;32;20081;-34
2021/04/23 05:16:06;;;;;;;46.30;5.30;;;22.00;32.50;;;;;;4373435;32;20065;-34
2021/04/23 05:18:32;;;;;;;42.95;6.87;;;22.20;32.40;;;;;;4373282;32;20065;-37
2021/04/23 05:20:59;;;;;;;33.38;8.85;;;22.40;31.60;;;;;;4373134;32;20474;-38
2021/04/23 05:23:26;;;;;;;46.08;6.87;;;22.60;31.70;;;;;;4373503;32;20088;-38
2021/04/23 05:25:52;;;;;;;46.35;7.47;;;22.70;31.00;;;;;;4373311;32;20155;-38
2021/04/23 05:28:19;;;;;;;37.08;6.62;;;22.80;30.80;;;;;;4371707;32;20070;-38
2021/04/23 05:30:45;;;;;;;52.35;6.93;;;22.80;30.70;;;;;;4373600;32;20065;-38
2021/04/23 05:33:12;;;;;;;39.67;5.57;;;22.90;30.60;;;;;;4373536;32;20086;-34
2021/04/23 05:35:39;;;;;;;39.70;7.57;;;22.80;30.60;;;;;;4373143;32;20077;-34
2021/04/23 05:38:06;;;;;;;38.50;7.78;;;22.70;30.70;;;;;;4373233;32;20163;-33
2021/04/23 05:40:37;;;;;;;34.97;6.90;;;22.70;30.80;;;;;;4373005;32;20470;-35
2021/04/23 05:43:07;;;;;;;52.50;8.57;;;22.90;30.80;;;;;;4372903;32;20566;-35
2021/04/23 05:45:34;;;;;;;37.25;6.95;;;23.10;30.90;;;;;;4373007;32;20074;-35
2021/04/23 05:48:01;;;;;;;36.00;6.78;;;23.20;30.40;;;;;;4373165;32;20077;-33
2021/04/23 05:50:27;;;;;;;42.70;7.50;;;23.30;30.40;;;;;;4372935;32;20077;-35
2021/04/23 05:52:54;;;;;;;39.55;6.55;;;23.50;30.50;;;;;;4373331;32;20066;-34
2021/04/23 05:55:25;;;;;;;32.20;6.30;;;23.80;30.20;;;;;;4371411;32;20077;-36
2021/04/23 05:57:54;;;;;;;39.10;6.12;;;24.20;30.00;;;;;;4373131;32;20093;-37
2021/04/23 06:00:22;;;;;;;34.83;5.65;;;24.70;29.30;;;;;;4373336;32;20077;-37
2021/04/23 06:02:49;;;;;;;33.25;5.85;;;25.10;28.80;;;;;;4358639;32;20085;-37
2021/04/23 06:05:16;;;;;;;37.28;5.62;;;25.50;28.30;;;;;;4371254;32;20159;-38
2021/04/23 06:07:43;;;;;;;45.53;7.28;;;25.80;27.90;;;;;;4373223;32;20065;-37
2021/04/23 06:10:10;;;;;;;32.45;6.95;;;26.00;27.80;;;;;;4371186;32;20059;-38
2021/04/23 06:12:37;;;;;;;43.50;6.80;;;26.20;27.40;;;;;;4372587;32;20187;-40
2021/04/23 06:15:05;;;;;;;34.78;7.93;;;26.20;27.30;;;;;;4372733;32;20521;-41
2021/04/23 06:17:31;;;;;;;43.90;6.95;;;26.30;27.40;;;;;;4372659;32;20074;-37
2021/04/23 06:19:58;;;;;;;51.45;9.50;;;26.40;27.90;;;;;;4372383;32;20062;-40
2021/04/23 06:22:24;;;;;;;41.65;6.75;;;26.40;27.40;;;;;;4372469;32;20447;-41
2021/04/23 06:24:51;;;;;;;36.95;6.28;;;26.30;27.10;;;;;;4357195;32;20136;-40
2021/04/23 06:27:17;;;;;;;33.72;6.15;;;26.10;26.90;;;;;;4370446;32;20077;-37
2021/04/23 06:29:44;;;;;;;33.80;6.05;;;26.00;27.10;;;;;;4370644;32;20058;-39
2021/04/23 06:32:11;;;;;;;51.50;8.23;;;25.80;27.10;;;;;;4372184;32;20522;-38
2021/04/23 06:34:37;;;;;;;48.83;7.62;;;25.70;27.40;;;;;;4373465;32;20560;-38
2021/04/23 06:37:04;;;;;;;61.55;8.93;;;25.60;27.60;;;;;;4373362;32;20106;-41
2021/04/23 06:39:30;;;;;;;54.67;7.78;;;25.40;27.60;;;;;;4372968;32;20090;-40
2021/04/23 06:41:57;;;;;;;39.95;7.20;;;25.30;27.80;;;;;;4373454;32;20101;-38
2021/04/23 06:44:23;;;;;;;41.75;9.50;;;25.10;27.80;;;;;;4360719;32;20100;-39
2021/04/23 06:46:50;;;;;;;50.08;7.57;;;24.90;28.10;;;;;;4373677;32;20142;-35
2021/04/23 06:49:18;;;;;;;47.60;8.07;;;24.60;28.10;;;;;;4373503;32;20625;-39
2021/04/23 06:51:45;;;;;;;47.40;8.70;;;24.30;28.40;;;;;;4360845;32;20189;-37
2021/04/23 06:54:11;;;;;;;51.08;7.55;;;24.10;28.50;;;;;;4372890;32;20074;-38
2021/04/23 06:56:38;;;;;;;49.13;8.43;;;23.70;28.70;;;;;;4360869;32;20608;-37
2021/04/23 06:59:05;;;;;;;42.15;8.63;;;23.50;29.20;;;;;;4373181;32;20094;-39
2021/04/23 07:01:31;;;;;;;37.97;8.30;;;23.20;29.40;;;;;;4361366;32;20081;-38
2021/04/23 07:03:58;;;;;;;59.88;8.77;;;22.90;29.70;;;;;;4375501;32;20077;-37
2021/04/23 07:06:24;;;;;;;45.15;8.80;;;22.60;30.00;;;;;;4375641;32;20072;-36
2021/04/23 07:08:51;;;;;;;46.53;8.40;;;22.50;30.40;;;;;;4375441;32;20074;-36
2021/04/23 07:11:17;;;;;;;42.15;7.95;;;22.40;30.40;;;;;;4375329;32;20069;-36
2021/04/23 07:13:44;;;;;;;36.33;6.53;;;22.40;30.50;;;;;;4375524;32;20524;-34
2021/04/23 07:16:10;;;;;;;43.72;8.20;;;22.40;30.60;;;;;;4374071;32;20089;-39
2021/04/23 07:18:37;;;;;;;43.45;7.45;;;22.30;31.10;;;;;;4373477;32;20134;-39
2021/04/23 07:21:03;;;;;;;35.30;6.78;;;22.30;30.90;;;;;;4375176;32;20178;-41
2021/04/23 07:23:30;;;;;;;47.97;8.10;;;22.30;31.00;;;;;;4373865;32;20186;-40
2021/04/23 07:25:56;;;;;;;53.78;8.23;;;22.40;30.80;;;;;;4375273;32;20070;-40
2021/04/23 07:28:23;;;;;;;41.30;7.82;;;22.50;30.70;;;;;;4375062;32;20139;-40
2021/04/23 07:30:49;;;;;;;47.22;6.80;;;22.60;30.80;;;;;;4374981;32;20145;-40
2021/04/23 07:33:16;;;;;;;48.90;8.48;;;22.60;30.70;;;;;;4375209;32;20059;-40
2021/04/23 07:35:44;;;;;;;54.85;6.62;;;22.70;30.60;;;;;;4375438;32;20062;-39
2021/04/23 07:38:11;;;;;;;40.38;5.05;;;22.90;31.30;;;;;;4375310;32;20089;-40
2021/04/23 07:40:38;;;;;;;40.63;7.28;;;23.10;30.70;;;;;;4375245;32;20066;-41
2021/04/23 07:43:05;;;;;;;49.55;7.53;;;23.50;30.10;;;;;;4374560;32;20499;-41
2021/04/23 07:45:31;;;;;;;46.35;7.22;;;23.80;29.60;;;;;;4374635;32;20066;-39
2021/04/23 07:47:58;;;;;;;52.22;7.78;;;24.00;29.10;;;;;;4374853;32;20069;-41
2021/04/23 07:50:25;;;;;;;44.47;6.45;;;24.10;28.90;;;;;;4374596;32;20081;-40
2021/04/23 07:52:52;;;;;;;48.28;8.48;;;24.10;28.60;;;;;;4374768;32;20171;-37
2021/04/23 07:55:20;;;;;;;46.75;9.38;;;24.00;28.60;;;;;;4375001;32;20082;-40
2021/04/23 07:57:48;;;;;;;45.83;7.62;;;23.80;29.10;;;;;;4374590;32;20062;-40
2021/04/23 08:00:17;;;;;;;48.00;7.03;;;23.80;28.90;;;;;;4374747;32;20131;-41
2021/04/23 08:02:45;;;;;;;47.88;8.25;;;23.70;28.90;;;;;;4374808;32;20054;-40
2021/04/23 08:05:15;;;;;;;62.05;8.23;;;23.60;29.00;;;;;;4374904;32;20146;-40
2021/04/23 08:07:41;;;;;;;43.85;6.75;;;23.60;29.40;;;;;;4374137;32;20089;-40
2021/04/23 08:10:09;;;;;;;55.50;6.78;;;23.60;29.20;;;;;;4374740;32;20066;-42
2021/04/23 08:12:36;;;;;;;48.72;6.80;;;23.80;29.20;;;;;;4374323;32;20102;-40
2021/04/23 08:15:04;;;;;;;53.33;7.30;;;24.00;28.80;;;;;;4374130;32;20069;-42
2021/04/23 08:17:30;;;;;;;57.90;8.27;;;24.20;28.70;;;;;;4373993;32;20094;-41
2021/04/23 08:19:57;;;;;;;50.00;7.47;;;24.40;28.40;;;;;;4374180;32;20087;-42
2021/04/23 08:22:23;;;;;;;54.25;8.43;;;24.70;28.50;;;;;;4374239;32;20102;-43
2021/04/23 08:24:50;;;;;;;51.97;5.85;;;25.00;28.30;;;;;;4374769;32;20466;-43
2021/04/23 08:27:16;;;;;;;64.72;8.32;;;25.20;27.80;;;;;;4374263;32;20528;-42
2021/04/23 08:29:43;;;;;;;61.55;10.07;;;25.40;27.30;;;;;;4373744;32;20514;-41
2021/04/23 08:32:09;;;;;;;58.55;8.68;;;25.50;27.40;;;;;;4373958;32;20532;-41
2021/04/23 08:34:35;;;;;;;60.63;9.07;;;25.60;27.40;;;;;;4373783;32;20552;-41
2021/04/23 08:37:02;;;;;;;72.28;9.68;;;25.70;27.00;;;;;;4373795;32;20082;-41
2021/04/23 08:39:28;;;;;;;47.22;7.70;;;25.60;26.90;;;;;;4374127;32;20082;-40
2021/04/23 08:41:55;;;;;;;46.30;7.75;;;25.40;27.20;;;;;;4374586;32;20055;-37
2021/04/23 08:44:21;;;;;;;79.95;8.95;;;25.40;27.20;;;;;;4373987;32;20085;-41
2021/04/23 08:46:48;;;;;;;64.87;8.80;;;25.30;27.20;;;;;;4373990;32;20085;-42
2021/04/23 08:49:17;;;;;;;57.45;7.37;;;25.20;27.30;;;;;;4371057;32;20085;-41
2021/04/23 08:51:45;;;;;;;70.70;8.48;;;25.20;27.20;;;;;;4347044;32;20074;-40
2021/04/23 08:54:12;;;;;;;62.60;8.60;;;25.20;27.40;;;;;;4371417;32;20180;-40
2021/04/23 08:56:39;;;;;;;52.72;7.43;;;25.00;27.30;;;;;;4370777;32;20522;-39
2021/04/23 08:59:05;;;;;;;63.97;9.05;;;24.90;27.40;;;;;;4346583;32;20109;-41
2021/04/23 09:01:31;;;;;;;63.58;8.13;;;24.90;27.50;;;;;;4371425;32;20086;-39
2021/04/23 09:03:58;;;;;;;58.47;7.55;;;24.90;27.30;;;;;;4371071;32;20058;-40
2021/04/23 09:06:27;;;;;;;65.43;8.70;;;25.00;27.60;;;;;;4371284;32;20188;-39
2021/04/23 09:08:56;;;;;;;67.72;8.88;;;25.10;27.40;;;;;;4359399;32;20501;-40
2021/04/23 09:11:26;;;;;;;74.78;9.68;;;25.10;27.10;;;;;;4371672;32;20093;-41
2021/04/23 09:13:57;;;;;;;80.38;10.15;;;25.10;27.00;;;;;;4371182;32;20077;-41
2021/04/23 09:16:46;;;;;;;75.00;10.25;;;25.00;27.00;;;;;;4371446;32;20110;-40
2021/04/23 09:19:29;;;;;;;79.10;13.27;;;25.10;26.90;;;;;;4370979;32;20094;-41
2021/04/23 09:22:07;;;;;;;69.80;10.23;;;25.00;27.00;;;;;;4373374;32;20100;-39
2021/04/23 09:24:39;;;;;;;74.50;12.13;;;24.90;27.00;;;;;;4386331;32;20141;-41
2021/04/23 09:27:20;;;;;;;68.70;13.18;;;24.80;27.20;;;;;;4388153;32;20177;-39
2021/04/23 09:29:52;;;;;;;73.82;12.32;;;24.90;27.60;;;;;;4388158;32;20165;-43
2021/04/23 09:32:33;;;;;;;76.97;14.43;;;25.10;27.70;;;;;;4388334;32;20112;-39
2021/04/23 09:35:11;;;;;;;71.00;11.30;;;25.40;27.80;;;;;;4388094;32;20081;-41
2021/04/23 09:37:53;;;;;;;63.72;12.07;;;25.70;27.30;;;;;;4388332;32;20061;-41
2021/04/23 09:40:33;;;;;;;78.45;13.32;;;25.90;26.90;;;;;;4387920;32;20606;-42
2021/04/23 09:43:04;;;;;;;90.05;12.50;;;26.00;26.80;;;;;;4388070;32;20064;-41
2021/04/23 09:45:56;;;;;;;71.20;11.68;;;26.40;26.60;;;;;;4387981;32;20111;-38
2021/04/23 09:48:25;;;;;;;72.37;13.32;;;26.70;26.70;;;;;;4387345;32;20124;-38
2021/04/23 09:50:53;;;;;;;84.78;14.27;;;27.00;25.90;;;;;;4386459;32;20559;-41
2021/04/23 09:53:29;;;;;;;63.35;12.35;;;27.00;25.60;;;;;;4388008;32;20081;-42
2021/04/23 09:55:56;;;;;;;67.82;12.95;;;26.80;26.10;;;;;;4388093;32;20438;-41
2021/04/23 09:58:23;;;;;;;74.95;13.45;;;26.70;26.10;;;;;;4387977;32;20157;-41
2021/04/23 10:00:58;;;;;;;80.03;12.48;;;26.50;26.10;;;;;;4387873;32;20097;-38
2021/04/23 10:03:33;;;;;;;;;;;26.30;26.70;;;;;;4388692;32;20070;-39
2021/04/23 10:06:19;;;;;;;70.18;13.52;;;26.20;26.70;;;;;;4388045;32;19961;-40
2021/04/23 10:08:46;;;;;;;69.12;11.60;;;26.20;26.60;;;;;;4386271;32;20500;-39
2021/04/23 10:11:12;;;;;;;81.90;15.95;;;26.00;26.50;;;;;;4386351;32;20054;-37
2021/04/23 10:13:39;;;;;;;85.15;12.95;;;25.80;26.90;;;;;;4388138;32;20073;-39
2021/04/23 10:16:05;;;;;;;75.07;15.95;;;25.70;27.00;;;;;;4387398;32;20060;-41
2021/04/23 10:18:32;;;;;;;78.57;13.88;;;25.70;26.80;;;;;;4386050;32;20187;-38
2021/04/23 10:21:00;;;;;;;71.05;12.52;;;25.80;26.60;;;;;;4388204;32;20061;-39
2021/04/23 10:23:28;;;;;;;57.30;11.10;;;25.80;27.00;;;;;;4379408;32;20665;-37
2021/04/23 10:25:55;;;;;;;66.10;14.65;;;25.70;27.10;;;;;;4372525;32;20070;-36
2021/04/23 10:28:24;;;;;;;68.78;12.02;;;25.70;26.80;;;;;;4384891;32;20261;-37
2021/04/23 10:30:55;;;;;;;61.25;12.48;;;25.70;26.90;;;;;;4384634;32;20114;-38
2021/04/23 10:33:24;;;;;;;79.22;11.82;;;25.50;27.00;;;;;;4385486;32;20078;-40
2021/04/23 10:35:56;;;;;;;66.37;10.60;;;25.50;27.10;;;;;;4385552;32;20062;-39
2021/04/23 10:38:31;;;;;;;70.28;13.90;;;25.70;27.00;;;;;;4360683;32;20498;-38
2021/04/23 10:41:05;;;;;;;83.15;13.23;;;25.90;26.80;;;;;;4385180;32;20518;-39
2021/04/23 10:43:33;;;;;;;77.68;13.90;;;26.10;26.80;;;;;;4372785;32;20085;-40
2021/04/23 10:46:04;;;;;;;70.20;13.95;;;26.10;26.60;;;;;;4385047;32;20066;-41
2021/04/23 10:48:40;;;;;;;58.63;10.85;;;26.20;26.70;;;;;;4385359;32;20162;-41
2021/04/23 10:51:10;;;;;;;60.97;11.63;;;26.50;26.70;;;;;;4384952;32;20065;-42
2021/04/23 10:53:44;;;;;;;70.12;13.07;;;27.00;26.30;;;;;;4384655;32;20078;-40
2021/04/23 10:56:31;;;;;;;;;;;27.70;25.90;;;;;;4385696;32;20152;-41
2021/04/23 10:59:20;;;;;;;81.43;12.82;;;28.00;25.60;;;;;;4380860;32;19969;-39
2021/04/23 11:01:46;;;;;;;75.55;13.60;;;27.70;25.20;;;;;;4371553;32;20143;-39
2021/04/23 11:04:17;;;;;;;72.15;12.02;;;27.40;25.50;;;;;;4371379;32;20066;-42
2021/04/23 11:06:56;;;;;;;66.28;12.43;;;27.20;25.50;;;;;;4372306;32;20088;-42
2021/04/23 11:09:25;;;;;;;83.05;13.75;;;27.10;25.70;;;;;;4370669;32;20065;-40
2021/04/23 11:12:16;;;;;;;69.43;11.30;;;27.20;25.70;;;;;;4372587;32;20061;-38
2021/04/23 11:14:44;;;;;;;79.07;13.43;;;27.40;25.90;;;;;;4372637;32;20130;-40
2021/04/23 11:17:34;;;;;;;69.97;13.40;;;27.50;25.30;;;;;;4370845;32;20094;-40
2021/04/23 11:20:00;;;;;;;77.45;12.85;;;27.90;25.70;;;;;;4374877;32;20494;-41
2021/04/23 11:22:29;;;;;;;69.43;13.10;;;28.10;25.10;;;;;;4375708;32;20065;-40
2021/04/23 11:25:25;;;;;;;69.20;14.40;;;28.10;25.00;;;;;;4390084;32;20154;-40
2021/04/23 11:28:00;;;;;;;92.65;15.07;;;28.00;25.10;;;;;;4387133;32;20186;-39
2021/04/23 11:30:28;;;;;;;65.57;10.27;;;27.80;25.30;;;;;;4387719;32;20554;-40
2021/04/23 11:32:56;;;;;;;67.22;12.93;;;27.90;25.30;;;;;;4387405;32;20628;-40
2021/04/23 11:35:26;;;;;;;64.40;10.40;;;28.30;25.10;;;;;;4387814;32;20068;-41
2021/04/23 11:37:55;;;;;;;58.45;10.73;;;28.80;24.80;;;;;;4387758;32;20191;-42
2021/04/23 11:40:29;;;;;;;60.15;10.02;;;29.20;25.10;;;;;;4387698;32;20557;-41
2021/04/23 11:43:02;;;;;;;43.05;6.82;;;29.60;24.10;;;;;;4387659;32;20676;-42
2021/04/23 11:45:31;;;;;;;60.80;7.47;;;30.10;23.60;;;;;;4387467;32;20074;-42
2021/04/23 11:48:00;;;;;;;50.10;7.18;;;30.40;23.30;;;;;;4387550;32;20100;-42
2021/04/23 11:50:43;;;;;;;45.00;6.50;;;30.70;23.00;;;;;;4387586;32;20522;-42
2021/04/23 11:53:13;;;;;;;59.08;8.75;;;31.00;22.90;;;;;;4387226;32;20188;-39
2021/04/23 11:55:45;;;;;;;55.55;8.20;;;31.10;22.50;;;;;;4387611;32;20073;-40
2021/04/23 11:58:23;;;;;;;59.10;7.78;;;31.20;22.40;;;;;;4388029;32;20058;-41
2021/04/23 12:00:58;;;;;;;46.55;6.95;;;31.30;22.30;;;;;;4389329;32;20567;-40
2021/04/23 12:03:25;;;;;;;60.28;8.10;;;31.30;22.50;;;;;;4389704;32;20069;-41
2021/04/23 12:05:53;;;;;;;55.00;7.03;;;31.10;22.60;;;;;;4389260;32;20491;-42
2021/04/23 12:08:24;;;;;;;56.22;7.47;;;30.90;22.60;;;;;;4389500;32;20099;-40
2021/04/23 12:10:52;;;;;;;50.92;7.53;;;30.60;22.70;;;;;;4389562;32;20110;-40
2021/04/23 12:13:29;;;;;;;67.70;8.55;;;30.40;22.60;;;;;;4389605;32;20100;-41
2021/04/23 12:16:01;;;;;;;61.33;8.82;;;30.30;22.90;;;;;;4389980;32;20149;-41
2021/04/23 12:18:28;;;;;;;56.72;7.93;;;30.10;22.70;;;;;;4390002;32;20098;-41
2021/04/23 12:20:57;;;;;;;48.17;6.70;;;30.00;22.80;;;;;;4387806;32;20085;-42
2021/04/23 12:23:31;;;;;;;57.80;8.65;;;29.80;23.00;;;;;;4382526;32;20066;-42
2021/04/23 12:26:00;;;;;;;48.10;6.30;;;29.70;23.20;;;;;;4374017;32;20102;-39
2021/04/23 12:28:34;;;;;;;54.05;9.00;;;29.50;23.10;;;;;;4373999;32;20498;-40
2021/04/23 12:31:28;;;;;;;52.80;7.18;;;29.40;23.20;;;;;;4372959;32;20474;-40
2021/04/23 12:33:56;;;;;;;55.15;8.02;;;29.30;23.60;;;;;;4374123;32;20074;-41
2021/04/23 12:36:37;;;;;;;51.00;6.62;;;29.40;23.40;;;;;;4374400;32;20058;-42
2021/04/23 12:39:11;;;;;;;54.78;6.37;;;29.50;23.20;;;;;;4372658;32;20520;-40
2021/04/23 12:41:43;;;;;;;52.00;5.28;;;29.70;23.20;;;;;;4372967;32;20146;-40
2021/04/23 12:44:15;;;;;;;44.40;6.25;;;29.70;23.20;;;;;;4374565;32;20062;-40
2021/04/23 12:46:48;;;;;;;40.83;5.45;;;29.80;23.00;;;;;;4373008;32;20081;-40